sensor_id;sensor_type;location;lat;lon;timestamp;pressure;altitude;pressure_sealevel;temperature;humidity
10978;BME280;5542;48.272;10.794;2023-07-29T00:01:10;95448.38;;;17.87;86.55
10978;BME280;5542;48.272;10.794;2023-07-29T00:03:37;95442.31;;;17.81;86.53
10978;BME280;5542;48.272;10.794;2023-07-29T00:06:03;95442.56;;;17.80;86.61
10978;BME280;5542;48.272;10.794;2023-07-29T00:08:30;95438.34;;;17.79;86.47
10978;BME280;5542;48.272;10.794;2023-07-29T00:10:57;95438.91;;;17.76;86.44
10978;BME280;5542;48.272;10.794;2023-07-29T00:13:23;95444.22;;;17.76;86.46
10978;BME280;5542;48.272;10.794;2023-07-29T00:15:50;95433.31;;;17.72;86.59
10978;BME280;5542;48.272;10.794;2023-07-29T00:18:18;95438.91;;;17.71;86.33
10978;BME280;5542;48.272;10.794;2023-07-29T00:20:44;95428.59;;;17.64;86.78
10978;BME280;5542;48.272;10.794;2023-07-29T00:23:11;95424.66;;;17.61;86.85
10978;BME280;5542;48.272;10.794;2023-07-29T00:25:38;95434.19;;;17.62;86.66
10978;BME280;5542;48.272;10.794;2023-07-29T00:28:04;95422.81;;;17.57;86.80
10978;BME280;5542;48.272;10.794;2023-07-29T00:30:31;95429.78;;;17.53;86.93
10978;BME280;5542;48.272;10.794;2023-07-29T00:32:58;95425.50;;;17.52;86.85
10978;BME280;5542;48.272;10.794;2023-07-29T00:35:26;95426.88;;;17.49;86.83
10978;BME280;5542;48.272;10.794;2023-07-29T00:37:52;95427.16;;;17.48;86.95
10978;BME280;5542;48.272;10.794;2023-07-29T00:40:21;95425.03;;;17.45;87.16
10978;BME280;5542;48.272;10.794;2023-07-29T00:42:48;95419.72;;;17.45;87.07
10978;BME280;5542;48.272;10.794;2023-07-29T00:45:14;95424.53;;;17.43;87.36
10978;BME280;5542;48.272;10.794;2023-07-29T00:47:42;95413.66;;;17.39;87.44
10978;BME280;5542;48.272;10.794;2023-07-29T00:50:09;95418.44;;;17.37;87.69
10978;BME280;5542;48.272;10.794;2023-07-29T00:52:38;95403.88;;;17.34;87.83
10978;BME280;5542;48.272;10.794;2023-07-29T00:55:05;95413.72;;;17.34;87.87
10978;BME280;5542;48.272;10.794;2023-07-29T00:57:33;95409.97;;;17.35;87.86
10978;BME280;5542;48.272;10.794;2023-07-29T01:00:00;95405.19;;;17.32;87.55
10978;BME280;5542;48.272;10.794;2023-07-29T01:02:27;95400.69;;;17.32;86.88
10978;BME280;5542;48.272;10.794;2023-07-29T01:04:56;95402.34;;;17.23;87.29
10978;BME280;5542;48.272;10.794;2023-07-29T01:07:30;95404.22;;;17.23;87.45
10978;BME280;5542;48.272;10.794;2023-07-29T01:10:03;95394.16;;;17.20;87.62
10978;BME280;5542;48.272;10.794;2023-07-29T01:12:37;95393.13;;;17.15;87.75
10978;BME280;5542;48.272;10.794;2023-07-29T01:15:11;95389.97;;;17.08;87.81
10978;BME280;5542;48.272;10.794;2023-07-29T01:17:43;95396.09;;;17.04;87.91
10978;BME280;5542;48.272;10.794;2023-07-29T01:20:14;95399.06;;;17.02;88.11
10978;BME280;5542;48.272;10.794;2023-07-29T01:22:41;95396.94;;;17.04;88.21
10978;BME280;5542;48.272;10.794;2023-07-29T01:25:09;95392.66;;;17.03;88.18
10978;BME280;5542;48.272;10.794;2023-07-29T01:27:36;95395.59;;;17.02;88.16
10978;BME280;5542;48.272;10.794;2023-07-29T01:30:03;95392.16;;;17.01;88.02
10978;BME280;5542;48.272;10.794;2023-07-29T01:32:37;95395.88;;;17.00;87.77
10978;BME280;5542;48.272;10.794;2023-07-29T01:35:14;95399.34;;;17.01;87.55
10978;BME280;5542;48.272;10.794;2023-07-29T01:37:43;95393.50;;;16.99;87.54
10978;BME280;5542;48.272;10.794;2023-07-29T01:40:12;95390.63;;;16.95;87.75
10978;BME280;5542;48.272;10.794;2023-07-29T01:42:39;95382.91;;;16.94;87.55
10978;BME280;5542;48.272;10.794;2023-07-29T01:45:06;95388.22;;;16.94;87.49
10978;BME280;5542;48.272;10.794;2023-07-29T01:47:33;95386.91;;;16.91;87.24
10978;BME280;5542;48.272;10.794;2023-07-29T01:49:59;95384.00;;;16.87;87.17
10978;BME280;5542;48.272;10.794;2023-07-29T01:52:26;95385.34;;;16.85;87.33
10978;BME280;5542;48.272;10.794;2023-07-29T01:54:53;95386.69;;;16.82;87.20
10978;BME280;5542;48.272;10.794;2023-07-29T01:57:21;95384.34;;;16.81;87.23
10978;BME280;5542;48.272;10.794;2023-07-29T01:59:47;95379.28;;;16.79;87.29
10978;BME280;5542;48.272;10.794;2023-07-29T02:02:14;95384.09;;;16.77;87.28
10978;BME280;5542;48.272;10.794;2023-07-29T02:04:40;95383.28;;;16.77;87.64
10978;BME280;5542;48.272;10.794;2023-07-29T02:07:07;95385.94;;;16.77;87.64
10978;BME280;5542;48.272;10.794;2023-07-29T02:09:33;95384.34;;;16.76;88.04
10978;BME280;5542;48.272;10.794;2023-07-29T02:12:00;95387.53;;;16.78;88.37
10978;BME280;5542;48.272;10.794;2023-07-29T02:14:28;95379.03;;;16.81;88.55
10978;BME280;5542;48.272;10.794;2023-07-29T02:16:55;95370.81;;;16.77;89.04
10978;BME280;5542;48.272;10.794;2023-07-29T02:19:21;95376.91;;;16.78;89.50
10978;BME280;5542;48.272;10.794;2023-07-29T02:21:48;95369.47;;;16.75;89.95
10978;BME280;5542;48.272;10.794;2023-07-29T02:24:15;95377.47;;;16.64;90.69
10978;BME280;5542;48.272;10.794;2023-07-29T02:26:41;95375.13;;;16.58;91.63
10978;BME280;5542;48.272;10.794;2023-07-29T02:29:08;95383.16;;;16.48;92.77
10978;BME280;5542;48.272;10.794;2023-07-29T02:31:36;95372.22;;;16.54;92.94
10978;BME280;5542;48.272;10.794;2023-07-29T02:34:03;95376.41;;;16.65;92.11
10978;BME280;5542;48.272;10.794;2023-07-29T02:36:30;95373.56;;;16.52;92.50
10978;BME280;5542;48.272;10.794;2023-07-29T02:38:57;95377.84;;;16.48;93.07
10978;BME280;5542;48.272;10.794;2023-07-29T02:41:23;95366.16;;;16.49;93.10
10978;BME280;5542;48.272;10.794;2023-07-29T02:43:50;95365.03;;;16.60;92.57
10978;BME280;5542;48.272;10.794;2023-07-29T02:46:17;95366.41;;;16.52;93.03
10978;BME280;5542;48.272;10.794;2023-07-29T02:48:45;95364.00;;;16.51;93.33
10978;BME280;5542;48.272;10.794;2023-07-29T02:51:12;95360.59;;;16.45;93.64
10978;BME280;5542;48.272;10.794;2023-07-29T02:53:39;95369.06;;;16.47;93.52
10978;BME280;5542;48.272;10.794;2023-07-29T02:56:05;95360.06;;;16.48;93.17
10978;BME280;5542;48.272;10.794;2023-07-29T02:58:35;95366.69;;;16.46;93.27
10978;BME280;5542;48.272;10.794;2023-07-29T03:01:02;95365.38;;;16.48;92.95
10978;BME280;5542;48.272;10.794;2023-07-29T03:03:29;95369.91;;;16.48;92.73
10978;BME280;5542;48.272;10.794;2023-07-29T03:06:01;95369.63;;;16.44;92.63
10978;BME280;5542;48.272;10.794;2023-07-29T03:08:28;95369.34;;;16.46;92.66
10978;BME280;5542;48.272;10.794;2023-07-29T03:10:55;95368.63;;;16.35;93.33
10978;BME280;5542;48.272;10.794;2023-07-29T03:13:22;95364.88;;;16.41;93.41
10978;BME280;5542;48.272;10.794;2023-07-29T03:15:48;95361.13;;;16.42;92.32
10978;BME280;5542;48.272;10.794;2023-07-29T03:18:15;95356.69;;;16.32;93.40
10978;BME280;5542;48.272;10.794;2023-07-29T03:20:42;95358.50;;;16.37;93.47
10978;BME280;5542;48.272;10.794;2023-07-29T03:23:10;95353.75;;;16.39;93.00
10978;BME280;5542;48.272;10.794;2023-07-29T03:25:36;95354.56;;;16.34;92.96
10978;BME280;5542;48.272;10.794;2023-07-29T03:28:03;95346.91;;;16.23;93.55
10978;BME280;5542;48.272;10.794;2023-07-29T03:30:30;95356.47;;;16.19;94.38
10978;BME280;5542;48.272;10.794;2023-07-29T03:32:56;95348.78;;;16.17;94.72
10978;BME280;5542;48.272;10.794;2023-07-29T03:35:22;95337.34;;;16.27;94.04
10978;BME280;5542;48.272;10.794;2023-07-29T03:37:49;95345.06;;;16.18;94.43
10978;BME280;5542;48.272;10.794;2023-07-29T03:40:17;95345.34;;;16.17;94.94
10978;BME280;5542;48.272;10.794;2023-07-29T03:42:44;95343.50;;;16.17;95.12
10978;BME280;5542;48.272;10.794;2023-07-29T03:45:10;95340.03;;;16.17;94.97
10978;BME280;5542;48.272;10.794;2023-07-29T03:47:37;95335.81;;;16.16;94.98
10978;BME280;5542;48.272;10.794;2023-07-29T03:50:05;95333.19;;;16.10;94.97
10978;BME280;5542;48.272;10.794;2023-07-29T03:52:31;95328.66;;;16.11;95.05
10978;BME280;5542;48.272;10.794;2023-07-29T03:54:58;95333.69;;;16.12;94.69
10978;BME280;5542;48.272;10.794;2023-07-29T03:57:26;95337.13;;;16.13;94.65
10978;BME280;5542;48.272;10.794;2023-07-29T03:59:54;95333.41;;;16.14;94.46
10978;BME280;5542;48.272;10.794;2023-07-29T04:02:20;95344.28;;;16.18;94.34
10978;BME280;5542;48.272;10.794;2023-07-29T04:04:47;95342.66;;;16.22;93.92
10978;BME280;5542;48.272;10.794;2023-07-29T04:07:13;95335.50;;;16.22;93.67
10978;BME280;5542;48.272;10.794;2023-07-29T04:09:40;95337.38;;;16.22;93.37
10978;BME280;5542;48.272;10.794;2023-07-29T04:12:08;95346.41;;;16.21;92.98
10978;BME280;5542;48.272;10.794;2023-07-29T04:14:36;95334.72;;;16.22;92.90
10978;BME280;5542;48.272;10.794;2023-07-29T04:17:03;95339.47;;;16.25;92.89
10978;BME280;5542;48.272;10.794;2023-07-29T04:19:29;95337.34;;;16.27;92.27
10978;BME280;5542;48.272;10.794;2023-07-29T04:21:56;95332.56;;;16.29;92.12
10978;BME280;5542;48.272;10.794;2023-07-29T04:24:23;95333.06;;;16.31;91.96
10978;BME280;5542;48.272;10.794;2023-07-29T04:26:49;95323.78;;;16.33;92.38
10978;BME280;5542;48.272;10.794;2023-07-29T04:29:16;95315.00;;;16.33;92.28
10978;BME280;5542;48.272;10.794;2023-07-29T04:31:44;95320.31;;;16.33;92.48
10978;BME280;5542;48.272;10.794;2023-07-29T04:34:11;95309.66;;;16.43;92.11
10978;BME280;5542;48.272;10.794;2023-07-29T04:36:37;95312.81;;;16.45;92.35
10978;BME280;5542;48.272;10.794;2023-07-29T04:39:04;95310.72;;;16.42;93.06
10978;BME280;5542;48.272;10.794;2023-07-29T04:41:30;95310.47;;;16.44;93.61
10978;BME280;5542;48.272;10.794;2023-07-29T04:43:57;95308.28;;;16.51;93.83
10978;BME280;5542;48.272;10.794;2023-07-29T04:46:23;95305.88;;;16.54;93.86
10978;BME280;5542;48.272;10.794;2023-07-29T04:48:51;95305.38;;;16.52;94.46
10978;BME280;5542;48.272;10.794;2023-07-29T04:51:18;95315.94;;;16.57;94.84
10978;BME280;5542;48.272;10.794;2023-07-29T04:53:44;95313.25;;;16.62;94.64
10978;BME280;5542;48.272;10.794;2023-07-29T04:56:11;95312.66;;;16.71;93.69
10978;BME280;5542;48.272;10.794;2023-07-29T04:58:38;95306.59;;;16.65;94.68
10978;BME280;5542;48.272;10.794;2023-07-29T05:01:04;95309.72;;;16.77;94.49
10978;BME280;5542;48.272;10.794;2023-07-29T05:03:31;95311.31;;;16.78;94.13
10978;BME280;5542;48.272;10.794;2023-07-29T05:05:59;95313.88;;;16.88;94.06
10978;BME280;5542;48.272;10.794;2023-07-29T05:08:26;95322.44;;;16.85;94.66
10978;BME280;5542;48.272;10.794;2023-07-29T05:10:52;95323.44;;;16.89;94.89
10978;BME280;5542;48.272;10.794;2023-07-29T05:13:19;95315.19;;;16.91;94.92
10978;BME280;5542;48.272;10.794;2023-07-29T05:15:47;95318.97;;;16.80;95.38
10978;BME280;5542;48.272;10.794;2023-07-29T05:18:13;95310.28;;;16.74;95.36
10978;BME280;5542;48.272;10.794;2023-07-29T05:20:40;95312.63;;;16.76;96.14
10978;BME280;5542;48.272;10.794;2023-07-29T05:23:08;95304.16;;;16.74;96.50
10978;BME280;5542;48.272;10.794;2023-07-29T05:25:35;95307.34;;;16.71;97.29
10978;BME280;5542;48.272;10.794;2023-07-29T05:28:02;95310.81;;;16.71;97.77
10978;BME280;5542;48.272;10.794;2023-07-29T05:30:29;95315.28;;;16.76;98.35
10978;BME280;5542;48.272;10.794;2023-07-29T05:32:56;95319.56;;;16.77;98.77
10978;BME280;5542;48.272;10.794;2023-07-29T05:35:23;95321.38;;;16.81;99.15
10978;BME280;5542;48.272;10.794;2023-07-29T05:37:49;95311.19;;;16.94;98.53
10978;BME280;5542;48.272;10.794;2023-07-29T05:40:17;95314.09;;;16.97;98.17
10978;BME280;5542;48.272;10.794;2023-07-29T05:42:44;95310.94;;;16.90;99.45
10978;BME280;5542;48.272;10.794;2023-07-29T05:45:11;95316.28;;;16.85;100.00
10978;BME280;5542;48.272;10.794;2023-07-29T05:47:38;95316.25;;;16.95;100.00
10978;BME280;5542;48.272;10.794;2023-07-29T05:50:05;95310.59;;;17.02;100.00
10978;BME280;5542;48.272;10.794;2023-07-29T05:52:32;95311.81;;;17.14;100.00
10978;BME280;5542;48.272;10.794;2023-07-29T05:54:58;95314.44;;;17.20;100.00
10978;BME280;5542;48.272;10.794;2023-07-29T05:57:27;95326.72;;;17.39;100.00
10978;BME280;5542;48.272;10.794;2023-07-29T05:59:54;95341.28;;;17.47;99.24
10978;BME280;5542;48.272;10.794;2023-07-29T06:02:20;95345.97;;;17.55;98.10
10978;BME280;5542;48.272;10.794;2023-07-29T06:04:47;95374.03;;;17.43;98.44
10978;BME280;5542;48.272;10.794;2023-07-29T06:07:13;95365.56;;;17.35;99.24
10978;BME280;5542;48.272;10.794;2023-07-29T06:09:40;95357.06;;;17.38;99.03
10978;BME280;5542;48.272;10.794;2023-07-29T06:12:08;95362.59;;;17.42;99.47
10978;BME280;5542;48.272;10.794;2023-07-29T06:14:36;95371.09;;;17.44;99.88
10978;BME280;5542;48.272;10.794;2023-07-29T06:17:02;95386.53;;;17.37;100.00
10978;BME280;5542;48.272;10.794;2023-07-29T06:19:29;95384.00;;;17.56;99.77
10978;BME280;5542;48.272;10.794;2023-07-29T06:21:55;95383.59;;;17.44;100.00
10978;BME280;5542;48.272;10.794;2023-07-29T06:24:22;95381.38;;;17.51;100.00
10978;BME280;5542;48.272;10.794;2023-07-29T06:26:49;95395.56;;;17.41;100.00
10978;BME280;5542;48.272;10.794;2023-07-29T06:29:15;95389.94;;;17.48;100.00
10978;BME280;5542;48.272;10.794;2023-07-29T06:31:43;95399.78;;;17.47;100.00
10978;BME280;5542;48.272;10.794;2023-07-29T06:34:10;95391.13;;;17.60;100.00
10978;BME280;5542;48.272;10.794;2023-07-29T06:36:36;95381.06;;;17.57;100.00
10978;BME280;5542;48.272;10.794;2023-07-29T06:39:03;95360.91;;;17.51;100.00
10978;BME280;5542;48.272;10.794;2023-07-29T06:41:29;95356.97;;;17.49;100.00
10978;BME280;5542;48.272;10.794;2023-07-29T06:43:56;95349.03;;;17.44;100.00
10978;BME280;5542;48.272;10.794;2023-07-29T06:46:23;95365.81;;;17.39;100.00
10978;BME280;5542;48.272;10.794;2023-07-29T06:48:51;95337.88;;;17.41;100.00
10978;BME280;5542;48.272;10.794;2023-07-29T06:51:17;95330.13;;;17.45;100.00
10978;BME280;5542;48.272;10.794;2023-07-29T06:53:44;95329.75;;;17.57;100.00
10978;BME280;5542;48.272;10.794;2023-07-29T06:56:11;95333.22;;;17.57;100.00
10978;BME280;5542;48.272;10.794;2023-07-29T06:58:37;95347.47;;;17.66;100.00
10978;BME280;5542;48.272;10.794;2023-07-29T07:01:04;95354.00;;;17.79;100.00
10978;BME280;5542;48.272;10.794;2023-07-29T07:03:30;95344.78;;;17.96;100.00
10978;BME280;5542;48.272;10.794;2023-07-29T07:05:58;95335.50;;;17.93;100.00
10978;BME280;5542;48.272;10.794;2023-07-29T07:08:25;95337.25;;;18.03;100.00
10978;BME280;5542;48.272;10.794;2023-07-29T07:10:51;95326.28;;;18.09;100.00
10978;BME280;5542;48.272;10.794;2023-07-29T07:13:18;95326.97;;;18.39;100.00
10978;BME280;5542;48.272;10.794;2023-07-29T07:15:44;95325.50;;;18.71;100.00
10978;BME280;5542;48.272;10.794;2023-07-29T07:18:11;95333.84;;;19.15;98.26
10978;BME280;5542;48.272;10.794;2023-07-29T07:20:38;95327.72;;;19.15;95.34
10978;BME280;5542;48.272;10.794;2023-07-29T07:23:05;95328.59;;;19.10;96.17
10978;BME280;5542;48.272;10.794;2023-07-29T07:25:36;95323.38;;;19.19;96.07
10978;BME280;5542;48.272;10.794;2023-07-29T07:28:02;95319.25;;;19.27;93.86
10978;BME280;5542;48.272;10.794;2023-07-29T07:30:29;95327.50;;;19.44;93.60
10978;BME280;5542;48.272;10.794;2023-07-29T07:32:55;95330.91;;;19.31;95.46
10978;BME280;5542;48.272;10.794;2023-07-29T07:35:22;95337.91;;;19.27;95.14
10978;BME280;5542;48.272;10.794;2023-07-29T07:37:49;95339.13;;;19.34;96.93
10978;BME280;5542;48.272;10.794;2023-07-29T07:40:16;95324.22;;;19.33;94.83
10978;BME280;5542;48.272;10.794;2023-07-29T07:42:43;95326.91;;;19.47;94.93
10978;BME280;5542;48.272;10.794;2023-07-29T07:45:10;95329.19;;;19.54;93.78
10978;BME280;5542;48.272;10.794;2023-07-29T07:47:36;95329.97;;;19.54;94.79
10978;BME280;5542;48.272;10.794;2023-07-29T07:50:03;95335.53;;;19.58;95.19
10978;BME280;5542;48.272;10.794;2023-07-29T07:52:30;95332.34;;;19.56;94.68
10978;BME280;5542;48.272;10.794;2023-07-29T07:54:56;95337.44;;;19.71;92.13
10978;BME280;5542;48.272;10.794;2023-07-29T07:57:24;95335.75;;;19.61;92.32
10978;BME280;5542;48.272;10.794;2023-07-29T07:59:51;95330.59;;;19.65;93.22
10978;BME280;5542;48.272;10.794;2023-07-29T08:02:18;95330.59;;;19.65;93.47
10978;BME280;5542;48.272;10.794;2023-07-29T08:04:45;95320.03;;;19.60;95.15
10978;BME280;5542;48.272;10.794;2023-07-29T08:07:12;95320.56;;;19.76;94.55
10978;BME280;5542;48.272;10.794;2023-07-29T08:09:39;95326.97;;;19.88;94.60
10978;BME280;5542;48.272;10.794;2023-07-29T08:12:06;95324.41;;;19.97;93.32
10978;BME280;5542;48.272;10.794;2023-07-29T08:14:34;95335.38;;;19.82;91.91
10978;BME280;5542;48.272;10.794;2023-07-29T08:17:00;95334.59;;;19.95;91.54
10978;BME280;5542;48.272;10.794;2023-07-29T08:19:28;95332.50;;;20.06;91.33
10978;BME280;5542;48.272;10.794;2023-07-29T08:21:54;95333.38;;;20.29;91.91
10978;BME280;5542;48.272;10.794;2023-07-29T08:24:21;95332.66;;;20.51;90.08
10978;BME280;5542;48.272;10.794;2023-07-29T08:26:48;95323.00;;;20.77;88.76
10978;BME280;5542;48.272;10.794;2023-07-29T08:29:14;95321.31;;;21.04;84.22
10978;BME280;5542;48.272;10.794;2023-07-29T08:31:42;95330.00;;;21.09;84.40
10978;BME280;5542;48.272;10.794;2023-07-29T08:34:09;95327.34;;;21.32;84.87
10978;BME280;5542;48.272;10.794;2023-07-29T08:36:35;95316.97;;;21.61;85.84
10978;BME280;5542;48.272;10.794;2023-07-29T08:39:02;95314.72;;;21.94;79.23
10978;BME280;5542;48.272;10.794;2023-07-29T08:41:32;95317.81;;;22.19;81.94
10978;BME280;5542;48.272;10.794;2023-07-29T08:44:09;95325.78;;;22.67;78.22
10978;BME280;5542;48.272;10.794;2023-07-29T08:46:36;95325.16;;;23.05;74.40
10978;BME280;5542;48.272;10.794;2023-07-29T08:49:04;95315.03;;;23.37;75.23
10978;BME280;5542;48.272;10.794;2023-07-29T08:51:31;95325.22;;;23.61;75.46
10978;BME280;5542;48.272;10.794;2023-07-29T08:53:59;95323.38;;;23.99;68.71
10978;BME280;5542;48.272;10.794;2023-07-29T08:56:26;95314.81;;;23.97;68.83
10978;BME280;5542;48.272;10.794;2023-07-29T08:58:55;95317.75;;;23.84;70.66
10978;BME280;5542;48.272;10.794;2023-07-29T09:01:22;95319.00;;;23.86;69.30
10978;BME280;5542;48.272;10.794;2023-07-29T09:03:52;95319.78;;;23.87;68.93
10978;BME280;5542;48.272;10.794;2023-07-29T09:06:20;95324.84;;;23.88;68.75
10978;BME280;5542;48.272;10.794;2023-07-29T09:08:48;95317.34;;;23.64;68.47
10978;BME280;5542;48.272;10.794;2023-07-29T09:11:15;95321.94;;;23.55;69.91
10978;BME280;5542;48.272;10.794;2023-07-29T09:13:42;95315.44;;;23.56;71.72
10978;BME280;5542;48.272;10.794;2023-07-29T09:16:09;95321.00;;;23.98;69.73
10978;BME280;5542;48.272;10.794;2023-07-29T09:18:36;95322.31;;;24.21;69.71
10978;BME280;5542;48.272;10.794;2023-07-29T09:21:02;95320.66;;;24.38;66.79
10978;BME280;5542;48.272;10.794;2023-07-29T09:23:38;95318.41;;;24.69;65.41
10978;BME280;5542;48.272;10.794;2023-07-29T09:26:05;95332.38;;;24.84;64.57
10978;BME280;5542;48.272;10.794;2023-07-29T09:28:34;95318.75;;;25.01;63.49
10978;BME280;5542;48.272;10.794;2023-07-29T09:31:01;95309.16;;;25.33;62.64
10978;BME280;5542;48.272;10.794;2023-07-29T09:33:28;95311.34;;;25.52;61.93
10978;BME280;5542;48.272;10.794;2023-07-29T09:35:54;95322.22;;;25.56;63.79
10978;BME280;5542;48.272;10.794;2023-07-29T09:38:26;95329.19;;;25.57;64.46
10978;BME280;5542;48.272;10.794;2023-07-29T09:40:56;95331.50;;;25.79;63.09
10978;BME280;5542;48.272;10.794;2023-07-29T09:43:25;95334.75;;;25.97;60.36
10978;BME280;5542;48.272;10.794;2023-07-29T09:45:52;95327.59;;;26.13;60.96
10978;BME280;5542;48.272;10.794;2023-07-29T09:48:22;95324.00;;;26.21;58.09
10978;BME280;5542;48.272;10.794;2023-07-29T09:50:49;95320.63;;;26.24;60.79
10978;BME280;5542;48.272;10.794;2023-07-29T09:53:16;95307.81;;;26.58;57.57
10978;BME280;5542;48.272;10.794;2023-07-29T09:55:46;95293.97;;;27.00;54.30
10978;BME280;5542;48.272;10.794;2023-07-29T09:58:14;95301.22;;;26.84;55.20
10978;BME280;5542;48.272;10.794;2023-07-29T10:00:41;95300.53;;;26.46;55.52
10978;BME280;5542;48.272;10.794;2023-07-29T10:03:08;95311.44;;;26.25;56.20
10978;BME280;5542;48.272;10.794;2023-07-29T10:05:35;95315.16;;;26.45;57.44
10978;BME280;5542;48.272;10.794;2023-07-29T10:08:02;95342.00;;;26.54;55.93
10978;BME280;5542;48.272;10.794;2023-07-29T10:10:30;95347.59;;;26.12;55.63
10978;BME280;5542;48.272;10.794;2023-07-29T10:12:57;95353.09;;;25.25;59.87
10978;BME280;5542;48.272;10.794;2023-07-29T10:15:26;95367.31;;;25.04;58.72
10978;BME280;5542;48.272;10.794;2023-07-29T10:17:52;95372.97;;;24.91;60.11
10978;BME280;5542;48.272;10.794;2023-07-29T10:20:19;95384.50;;;24.70;59.50
10978;BME280;5542;48.272;10.794;2023-07-29T10:22:47;95399.38;;;24.38;61.93
10978;BME280;5542;48.272;10.794;2023-07-29T10:25:16;95392.66;;;23.68;65.44
10978;BME280;5542;48.272;10.794;2023-07-29T10:27:48;95362.06;;;23.34;68.58
10978;BME280;5542;48.272;10.794;2023-07-29T10:30:15;95389.22;;;23.15;66.72
10978;BME280;5542;48.272;10.794;2023-07-29T10:32:44;95376.09;;;22.79;67.96
10978;BME280;5542;48.272;10.794;2023-07-29T10:35:12;95369.91;;;22.61;68.64
10978;BME280;5542;48.272;10.794;2023-07-29T10:37:39;95362.09;;;22.25;69.75
10978;BME280;5542;48.272;10.794;2023-07-29T10:40:08;95369.50;;;21.88;71.79
10978;BME280;5542;48.272;10.794;2023-07-29T10:42:35;95350.44;;;21.81;73.49
10978;BME280;5542;48.272;10.794;2023-07-29T10:45:17;95345.47;;;21.66;74.40
10978;BME280;5542;48.272;10.794;2023-07-29T10:47:46;95333.84;;;21.70;74.67
10978;BME280;5542;48.272;10.794;2023-07-29T10:50:18;95330.75;;;21.55;76.09
10978;BME280;5542;48.272;10.794;2023-07-29T10:52:49;95342.16;;;21.60;77.21
10978;BME280;5542;48.272;10.794;2023-07-29T10:55:29;95343.41;;;21.94;79.79
10978;BME280;5542;48.272;10.794;2023-07-29T10:58:07;95334.41;;;22.38;79.14
10978;BME280;5542;48.272;10.794;2023-07-29T11:00:34;95344.69;;;22.62;79.06
10978;BME280;5542;48.272;10.794;2023-07-29T11:03:02;95335.06;;;22.87;77.00
10978;BME280;5542;48.272;10.794;2023-07-29T11:05:52;95325.34;;;23.09;79.94
10978;BME280;5542;48.272;10.794;2023-07-29T11:08:21;95322.72;;;23.47;75.29
10978;BME280;5542;48.272;10.794;2023-07-29T11:11:01;95328.91;;;23.30;76.08
10978;BME280;5542;48.272;10.794;2023-07-29T11:13:28;95321.66;;;23.31;75.75
10978;BME280;5542;48.272;10.794;2023-07-29T11:15:55;95323.56;;;23.30;77.80
10978;BME280;5542;48.272;10.794;2023-07-29T11:18:27;95323.72;;;23.25;77.76
10978;BME280;5542;48.272;10.794;2023-07-29T11:20:55;95316.78;;;23.33;77.30
10978;BME280;5542;48.272;10.794;2023-07-29T11:23:28;95317.22;;;23.43;80.30
10978;BME280;5542;48.272;10.794;2023-07-29T11:25:55;95318.31;;;23.51;78.09
10978;BME280;5542;48.272;10.794;2023-07-29T11:28:23;95317.81;;;23.49;79.15
10978;BME280;5542;48.272;10.794;2023-07-29T11:30:50;95324.31;;;23.48;79.32
10978;BME280;5542;48.272;10.794;2023-07-29T11:33:18;95311.38;;;23.41;77.83
10978;BME280;5542;48.272;10.794;2023-07-29T11:35:46;95318.78;;;23.44;79.25
10978;BME280;5542;48.272;10.794;2023-07-29T11:38:15;95308.38;;;23.43;81.24
10978;BME280;5542;48.272;10.794;2023-07-29T11:40:42;95300.91;;;23.57;80.32
10978;BME280;5542;48.272;10.794;2023-07-29T11:43:09;95305.66;;;23.60;82.08
10978;BME280;5542;48.272;10.794;2023-07-29T11:45:43;95297.19;;;23.88;84.01
10978;BME280;5542;48.272;10.794;2023-07-29T11:48:10;95290.91;;;24.13;83.40
10978;BME280;5542;48.272;10.794;2023-07-29T11:50:36;95283.44;;;24.19;81.28
10978;BME280;5542;48.272;10.794;2023-07-29T11:53:04;95280.72;;;24.27;78.32
10978;BME280;5542;48.272;10.794;2023-07-29T11:55:33;95280.75;;;24.48;82.15
10978;BME280;5542;48.272;10.794;2023-07-29T11:58:01;95310.34;;;24.69;76.34
10978;BME280;5542;48.272;10.794;2023-07-29T12:00:28;95316.56;;;24.61;73.84
10978;BME280;5542;48.272;10.794;2023-07-29T12:02:55;95293.53;;;24.51;76.25
10978;BME280;5542;48.272;10.794;2023-07-29T12:05:23;95289.41;;;24.54;78.02
10978;BME280;5542;48.272;10.794;2023-07-29T12:07:50;95280.69;;;24.57;78.29
10978;BME280;5542;48.272;10.794;2023-07-29T12:10:18;95278.28;;;24.64;72.09
10978;BME280;5542;48.272;10.794;2023-07-29T12:12:47;95283.13;;;24.50;72.89
10978;BME280;5542;48.272;10.794;2023-07-29T12:15:21;95290.50;;;24.53;74.30
10978;BME280;5542;48.272;10.794;2023-07-29T12:17:48;95283.09;;;24.71;74.72
10978;BME280;5542;48.272;10.794;2023-07-29T12:20:15;95273.38;;;24.99;77.20
10978;BME280;5542;48.272;10.794;2023-07-29T12:22:41;95275.47;;;25.15;72.99
10978;BME280;5542;48.272;10.794;2023-07-29T12:25:08;95266.75;;;25.30;72.69
10978;BME280;5542;48.272;10.794;2023-07-29T12:27:36;95272.28;;;25.46;72.95
10978;BME280;5542;48.272;10.794;2023-07-29T12:30:04;95271.97;;;25.72;68.11
10978;BME280;5542;48.272;10.794;2023-07-29T12:32:31;95276.38;;;25.76;64.71
10978;BME280;5542;48.272;10.794;2023-07-29T12:34:58;95279.16;;;25.68;64.08
10978;BME280;5542;48.272;10.794;2023-07-29T12:37:31;95276.41;;;25.89;63.97
10978;BME280;5542;48.272;10.794;2023-07-29T12:39:57;95292.22;;;25.78;63.55
10978;BME280;5542;48.272;10.794;2023-07-29T12:42:24;95285.31;;;25.56;65.41
10978;BME280;5542;48.272;10.794;2023-07-29T12:44:52;95277.47;;;25.63;64.79
10978;BME280;5542;48.272;10.794;2023-07-29T12:47:18;95285.09;;;25.61;63.96
10978;BME280;5542;48.272;10.794;2023-07-29T12:49:45;95287.00;;;25.61;64.71
10978;BME280;5542;48.272;10.794;2023-07-29T12:52:12;95288.66;;;25.53;65.10
10978;BME280;5542;48.272;10.794;2023-07-29T12:54:38;95275.13;;;25.49;65.77
10978;BME280;5542;48.272;10.794;2023-07-29T12:57:07;95277.25;;;25.56;65.74
10978;BME280;5542;48.272;10.794;2023-07-29T12:59:34;95276.81;;;25.66;65.12
10978;BME280;5542;48.272;10.794;2023-07-29T13:02:02;95275.69;;;25.67;65.15